createdAt,value
2018-01-30T00:01:11.656Z,11.37
2018-01-30T00:03:40.448Z,9.07
2018-01-30T00:06:08.832Z,9.60
2018-01-30T00:08:36.384Z,9.20
2018-01-30T00:11:04.185Z,9.73
2018-01-30T00:13:31.804Z,9.30
2018-01-30T00:15:59.375Z,9.30
2018-01-30T00:18:26.889Z,9.13
2018-01-30T00:20:55.224Z,8.80
2018-01-30T00:23:23.664Z,9.53
2018-01-30T00:25:51.545Z,10.43
2018-01-30T00:28:19.455Z,8.57
2018-01-30T00:30:47.173Z,9.97
2018-01-30T00:33:15.242Z,9.37
2018-01-30T00:35:43.211Z,9.53
2018-01-30T00:38:10.955Z,8.53
2018-01-30T00:40:39.190Z,9.97
2018-01-30T00:43:06.776Z,9.30
2018-01-30T00:45:34.385Z,9.43
2018-01-30T00:48:02.356Z,8.27
2018-01-30T00:50:29.968Z,8.13
2018-01-30T00:52:58.264Z,8.87
2018-01-30T00:55:25.816Z,9.43
2018-01-30T00:57:54.104Z,9.00
2018-01-30T01:00:21.641Z,9.20
2018-01-30T01:02:49.916Z,9.43
2018-01-30T01:05:18.424Z,9.10
2018-01-30T01:07:46.205Z,9.80
2018-01-30T01:10:14.069Z,8.43
2018-01-30T01:12:42.060Z,8.90
2018-01-30T01:15:10.728Z,8.60
2018-01-30T01:17:38.480Z,8.80
2018-01-30T01:20:06.033Z,7.93
2018-01-30T01:22:33.713Z,7.60
2018-01-30T01:25:01.617Z,8.57
2018-01-30T01:27:29.497Z,8.57
2018-01-30T01:29:57.061Z,8.63
2018-01-30T01:32:24.600Z,8.37
2018-01-30T01:34:52.185Z,8.00
2018-01-30T01:37:19.710Z,8.30
2018-01-30T01:39:47.486Z,7.67
2018-01-30T01:42:15.071Z,7.40
2018-01-30T01:44:43.713Z,7.07
2018-01-30T01:47:11.965Z,6.90
2018-01-30T01:49:39.946Z,6.93
2018-01-30T01:52:08.531Z,7.10
2018-01-30T01:54:36.295Z,6.73
2018-01-30T01:57:03.869Z,7.73
2018-01-30T01:59:31.644Z,7.43
2018-01-30T02:02:00.308Z,7.53
2018-01-30T02:04:28.873Z,7.23
2018-01-30T02:06:56.404Z,7.50
2018-01-30T02:09:23.936Z,7.60
2018-01-30T02:11:51.470Z,7.50
2018-01-30T02:14:19.017Z,7.80
2018-01-30T02:16:46.768Z,8.33
2018-01-30T02:19:14.864Z,7.73
2018-01-30T02:21:44.584Z,8.10
2018-01-30T02:24:12.647Z,7.60
2018-01-30T02:26:40.822Z,8.27
2018-01-30T02:29:08.828Z,7.40
2018-01-30T02:31:36.352Z,7.07
2018-01-30T02:34:04.057Z,7.93
2018-01-30T02:36:31.827Z,7.47
2018-01-30T02:38:59.411Z,7.17
2018-01-30T02:41:26.954Z,7.93
2018-01-30T02:43:54.492Z,8.23
2018-01-30T02:46:22.010Z,8.30
2018-01-30T02:48:49.529Z,8.13
2018-01-30T02:51:17.345Z,8.47
2018-01-30T02:53:45.681Z,9.17
2018-01-30T02:56:13.580Z,8.83
2018-01-30T02:58:41.586Z,10.50
2018-01-30T03:01:10.714Z,8.97
2018-01-30T03:03:38.492Z,9.33
2018-01-30T03:06:07.362Z,9.60
2018-01-30T03:08:35.666Z,8.90
2018-01-30T03:11:04.497Z,8.90
2018-01-30T03:13:32.931Z,9.07
2018-01-30T03:16:01.751Z,8.80
2018-01-30T03:18:29.378Z,10.20
2018-01-30T03:20:57.661Z,10.40
2018-01-30T03:23:25.234Z,10.33
2018-01-30T03:25:52.757Z,10.33
2018-01-30T03:28:20.412Z,9.50
2018-01-30T03:30:47.965Z,10.20
2018-01-30T03:33:16.383Z,10.47
2018-01-30T03:35:45.988Z,9.97
2018-01-30T03:38:15.044Z,10.03
2018-01-30T03:40:42.699Z,10.83
2018-01-30T03:43:10.550Z,10.00
2018-01-30T03:45:38.171Z,11.27
2018-01-30T03:48:06.473Z,11.40
2018-01-30T03:50:34.558Z,10.13
2018-01-30T03:53:02.952Z,11.07
2018-01-30T03:55:30.502Z,11.30
2018-01-30T03:57:58.040Z,11.20
2018-01-30T04:00:25.561Z,11.10
2018-01-30T04:02:53.114Z,11.00
2018-01-30T04:05:20.633Z,12.30
2018-01-30T04:07:48.249Z,12.57
2018-01-30T04:10:16.581Z,11.97
2018-01-30T04:12:44.774Z,12.63
2018-01-30T04:15:13.435Z,11.67
2018-01-30T04:17:43.452Z,11.10
2018-01-30T04:20:12.197Z,11.47
2018-01-30T04:22:41.131Z,13.73
2018-01-30T04:25:09.305Z,13.40
2018-01-30T04:27:37.070Z,12.80
2018-01-30T04:30:05.748Z,12.73
2018-01-30T04:32:33.772Z,13.23
2018-01-30T04:35:02.133Z,13.03
2018-01-30T04:37:29.879Z,12.93
2018-01-30T04:39:57.437Z,12.47
2018-01-30T04:42:24.974Z,13.20
2018-01-30T04:44:52.493Z,13.10
2018-01-30T04:47:20.090Z,14.37
2018-01-30T04:49:48.080Z,12.90
2018-01-30T04:52:16.744Z,13.63
2018-01-30T04:54:45.462Z,13.87
2018-01-30T04:57:13.425Z,14.53
2018-01-30T04:59:42.492Z,13.97
2018-01-30T05:02:10.285Z,14.37
2018-01-30T05:04:38.163Z,14.90
2018-01-30T05:07:06.253Z,14.97
2018-01-30T05:09:34.309Z,14.90
2018-01-30T05:12:02.292Z,14.60
2018-01-30T05:14:29.867Z,16.10
2018-01-30T05:16:57.412Z,15.80
2018-01-30T05:19:24.934Z,14.20
2018-01-30T05:21:52.492Z,15.13
2018-01-30T05:24:20.017Z,14.77
2018-01-30T05:26:48.069Z,16.07
2018-01-30T05:29:15.903Z,15.73
2018-01-30T05:31:43.904Z,15.90
2018-01-30T05:34:12.764Z,17.10
2018-01-30T05:36:41.240Z,15.43
2018-01-30T05:39:09.329Z,16.03
2018-01-30T05:41:37.330Z,16.20
2018-01-30T05:44:06.416Z,16.70
2018-01-30T05:46:34.606Z,15.93
2018-01-30T05:49:03.155Z,15.63
2018-01-30T05:51:30.721Z,14.07
2018-01-30T05:53:58.256Z,14.43
2018-01-30T05:56:25.784Z,15.00
2018-01-30T05:58:54.097Z,16.63
2018-01-30T06:01:22.060Z,15.13
2018-01-30T06:03:49.586Z,14.97
2018-01-30T06:06:17.272Z,15.60
2018-01-30T06:08:45.458Z,16.00
2018-01-30T06:11:13.630Z,16.97
2018-01-30T06:13:41.302Z,16.47
2018-01-30T06:16:10.090Z,17.00
2018-01-30T06:18:39.568Z,17.20
2018-01-30T06:21:11.043Z,17.27
2018-01-30T06:23:39.205Z,16.03
2018-01-30T06:26:08.070Z,16.67
2018-01-30T06:28:35.781Z,18.03
2018-01-30T06:31:03.647Z,17.80
2018-01-30T06:33:31.333Z,17.07
2018-01-30T06:35:59.682Z,17.80
2018-01-30T06:38:27.246Z,15.47
2018-01-30T06:40:54.775Z,15.30
2018-01-30T06:43:23.093Z,15.83
2018-01-30T06:45:50.624Z,15.90
2018-01-30T06:48:18.380Z,16.27
2018-01-30T06:50:46.084Z,15.97
2018-01-30T06:53:14.053Z,16.17
2018-01-30T06:55:43.034Z,15.40
2018-01-30T06:58:11.020Z,17.10
2018-01-30T07:00:39.192Z,15.37
2018-01-30T07:03:08.310Z,16.73
2018-01-30T07:05:35.849Z,18.30
2018-01-30T07:08:03.407Z,19.30
2018-01-30T07:10:31.059Z,22.53
2018-01-30T07:12:59.130Z,22.13
2018-01-30T07:15:26.685Z,21.43
2018-01-30T07:17:54.252Z,22.03
2018-01-30T07:20:21.788Z,24.07
2018-01-30T07:22:49.393Z,24.83
2018-01-30T07:25:16.925Z,23.60
2018-01-30T07:27:44.696Z,22.53
2018-01-30T07:30:12.359Z,23.57
2018-01-30T07:32:39.977Z,22.53
2018-01-30T07:35:08.810Z,22.60
2018-01-30T07:37:36.333Z,21.50
2018-01-30T07:40:04.992Z,22.20
2018-01-30T07:42:32.592Z,19.53
2018-01-30T07:45:01.046Z,18.17
2018-01-30T07:47:28.577Z,19.03
2018-01-30T07:49:56.097Z,18.67
2018-01-30T07:52:23.652Z,18.83
2018-01-30T07:54:51.965Z,20.40
2018-01-30T07:57:19.507Z,22.23
2018-01-30T07:59:47.036Z,21.07
2018-01-30T08:02:15.345Z,20.37
2018-01-30T08:04:43.233Z,20.30
2018-01-30T08:07:11.039Z,20.30
2018-01-30T08:09:39.113Z,19.10
2018-01-30T08:12:07.842Z,19.53
2018-01-30T08:14:35.422Z,20.33
2018-01-30T08:17:03.041Z,21.33
2018-01-30T08:19:31.784Z,21.63
2018-01-30T08:21:59.619Z,22.53
2018-01-30T08:24:27.166Z,20.53
2018-01-30T08:26:54.686Z,20.00
2018-01-30T08:29:22.244Z,17.00
2018-01-30T08:31:49.765Z,16.63
2018-01-30T08:34:17.296Z,17.10
2018-01-30T08:36:45.614Z,17.33
2018-01-30T08:39:13.489Z,17.23
2018-01-30T08:41:41.173Z,17.07
2018-01-30T08:44:09.104Z,15.80
2018-01-30T08:46:36.767Z,15.83
2018-01-30T08:49:04.301Z,15.47
2018-01-30T08:51:32.282Z,15.40
2018-01-30T08:53:59.893Z,15.30
2018-01-30T08:56:27.437Z,16.03
2018-01-30T08:58:55.407Z,15.70
2018-01-30T09:01:22.931Z,16.23
2018-01-30T09:03:50.468Z,16.77
2018-01-30T09:06:18.797Z,18.00
2018-01-30T09:08:46.564Z,18.10
2018-01-30T09:11:14.299Z,17.50
2018-01-30T09:13:43.106Z,18.03
2018-01-30T09:16:10.921Z,18.23
2018-01-30T09:18:39.845Z,17.43
2018-01-30T09:21:07.499Z,16.33
2018-01-30T09:23:35.279Z,15.80
2018-01-30T09:26:02.911Z,16.47
2018-01-30T09:28:31.373Z,15.90
2018-01-30T09:31:00.403Z,16.40
2018-01-30T09:33:28.181Z,15.00
2018-01-30T09:35:55.741Z,14.80
2018-01-30T09:38:23.280Z,15.03
2018-01-30T09:40:50.811Z,14.70
2018-01-30T09:43:18.344Z,15.43
2018-01-30T09:45:45.985Z,15.07
2018-01-30T09:48:14.031Z,13.50
2018-01-30T09:50:41.921Z,13.70
2018-01-30T09:53:09.561Z,12.97
2018-01-30T09:55:37.270Z,13.80
2018-01-30T09:58:05.633Z,13.83
2018-01-30T10:00:33.445Z,14.53
2018-01-30T10:03:01.974Z,15.67
2018-01-30T10:05:29.659Z,14.10
2018-01-30T10:07:57.207Z,15.13
2018-01-30T10:10:24.781Z,15.53
2018-01-30T10:12:52.302Z,14.83
2018-01-30T10:15:19.876Z,14.97
2018-01-30T10:17:47.397Z,16.07
2018-01-30T10:20:15.784Z,16.00
2018-01-30T10:22:43.376Z,15.13
2018-01-30T10:25:11.041Z,15.63
2018-01-30T10:27:39.087Z,15.20
2018-01-30T10:30:06.628Z,18.20
2018-01-30T10:32:34.230Z,15.47
2018-01-30T10:35:01.894Z,15.57
2018-01-30T10:37:29.556Z,14.70
2018-01-30T10:39:57.094Z,14.27
2018-01-30T10:42:25.409Z,14.80
2018-01-30T10:44:52.941Z,14.60
2018-01-30T10:47:20.695Z,14.47
2018-01-30T10:49:48.376Z,14.73
2018-01-30T10:52:15.959Z,14.07
2018-01-30T10:54:43.706Z,12.53
2018-01-30T10:57:11.458Z,13.20
2018-01-30T10:59:39.299Z,14.37
2018-01-30T11:02:07.719Z,12.43
2018-01-30T11:04:35.279Z,13.00
2018-01-30T11:07:02.842Z,12.50
2018-01-30T11:09:30.373Z,13.27
2018-01-30T11:11:58.792Z,13.70
2018-01-30T11:14:26.345Z,12.83
2018-01-30T11:16:53.879Z,13.53
2018-01-30T11:19:21.401Z,12.27
2018-01-30T11:21:49.040Z,12.20
2018-01-30T11:24:16.789Z,13.33
2018-01-30T11:26:44.547Z,12.57
2018-01-30T11:29:12.210Z,14.47
2018-01-30T11:31:39.872Z,14.70
2018-01-30T11:34:07.638Z,12.53
2018-01-30T11:36:35.268Z,13.03
2018-01-30T11:39:02.822Z,9.73
2018-01-30T11:41:31.651Z,10.53
2018-01-30T11:43:59.321Z,12.17
2018-01-30T11:46:26.850Z,11.53
2018-01-30T11:48:54.402Z,11.10
2018-01-30T11:51:22.697Z,12.03
2018-01-30T11:53:50.214Z,11.63
2018-01-30T11:56:17.773Z,11.07
2018-01-30T11:58:45.395Z,10.27
2018-01-30T12:01:13.041Z,10.10
2018-01-30T12:03:40.629Z,8.23
2018-01-30T12:06:08.779Z,8.20
2018-01-30T12:11:27.969Z,9.07
2018-01-30T12:13:55.610Z,9.47
2018-01-30T12:16:23.893Z,8.90
2018-01-30T12:18:51.797Z,8.40
2018-01-30T12:21:19.451Z,7.60
2018-01-30T12:23:47.411Z,8.03
2018-01-30T12:26:15.025Z,7.70
2018-01-30T12:28:42.696Z,6.57
2018-01-30T12:31:10.639Z,7.37
2018-01-30T12:33:39.910Z,7.10
2018-01-30T12:36:09.729Z,6.83
2018-01-30T12:38:39.119Z,7.50
2018-01-30T12:41:06.788Z,6.90
2018-01-30T12:43:34.356Z,7.40
2018-01-30T12:46:01.966Z,6.20
2018-01-30T12:48:29.520Z,6.20
2018-01-30T12:50:57.807Z,6.27
2018-01-30T12:53:26.112Z,5.63
2018-01-30T12:55:53.626Z,6.07
2018-01-30T12:58:21.201Z,7.53
2018-01-30T13:00:49.818Z,6.03
2018-01-30T13:03:17.591Z,5.57
2018-01-30T13:05:45.256Z,4.90
2018-01-30T13:08:12.854Z,5.70
2018-01-30T13:10:41.596Z,6.13
2018-01-30T13:13:09.497Z,5.60
2018-01-30T13:15:37.232Z,5.50
2018-01-30T13:18:04.768Z,5.90
2018-01-30T13:20:33.084Z,5.27
2018-01-30T13:23:01.033Z,5.47
2018-01-30T13:25:29.365Z,6.13
2018-01-30T13:27:56.886Z,5.60
2018-01-30T13:30:24.773Z,4.83
2018-01-30T13:32:52.307Z,5.37
2018-01-30T13:35:19.957Z,5.33
2018-01-30T13:37:47.586Z,5.60
2018-01-30T13:40:16.088Z,5.13
2018-01-30T13:42:44.042Z,4.77
2018-01-30T13:45:12.809Z,5.00
2018-01-30T13:47:42.204Z,4.90
2018-01-30T13:50:10.502Z,4.60
2018-01-30T13:52:38.645Z,5.07
2018-01-30T13:55:06.182Z,4.53
2018-01-30T13:57:34.221Z,4.73
2018-01-30T14:00:02.530Z,5.20
2018-01-30T14:02:30.082Z,4.70
2018-01-30T14:04:57.604Z,4.40
2018-01-30T14:07:25.141Z,4.13
2018-01-30T14:09:53.557Z,4.40
2018-01-30T14:12:24.862Z,3.70
2018-01-30T14:14:52.981Z,3.43
2018-01-30T14:17:21.360Z,3.73
2018-01-30T14:19:49.658Z,3.90
2018-01-30T14:22:18.109Z,3.73
2018-01-30T14:24:47.384Z,3.40
2018-01-30T14:27:15.316Z,3.87
2018-01-30T14:29:43.629Z,4.20
2018-01-30T14:32:12.238Z,3.70
2018-01-30T14:34:40.085Z,4.70
2018-01-30T14:37:08.734Z,3.57
2018-01-30T14:39:37.204Z,4.43
2018-01-30T14:42:04.979Z,4.03
2018-01-30T14:44:32.689Z,4.77
2018-01-30T14:47:00.401Z,5.50
2018-01-30T14:49:31.857Z,4.47
2018-01-30T14:51:59.464Z,4.60
2018-01-30T14:54:27.135Z,4.20
2018-01-30T14:56:54.739Z,4.40
2018-01-30T14:59:23.462Z,4.47
2018-01-30T15:01:50.994Z,4.93
2018-01-30T15:04:18.531Z,5.50
2018-01-30T15:06:46.039Z,5.27
2018-01-30T15:09:14.545Z,5.10
2018-01-30T15:11:42.489Z,4.83
2018-01-30T15:14:10.351Z,5.40
2018-01-30T15:16:38.237Z,5.47
2018-01-30T15:19:07.478Z,5.47
2018-01-30T15:21:35.357Z,5.77
2018-01-30T15:24:02.891Z,5.27
2018-01-30T15:26:31.229Z,5.80
2018-01-30T15:29:00.363Z,5.27
2018-01-30T15:31:28.799Z,5.60
2018-01-30T15:33:56.738Z,4.77
2018-01-30T15:36:24.284Z,3.90
2018-01-30T15:38:51.830Z,4.33
2018-01-30T15:41:20.146Z,4.40
2018-01-30T15:43:48.159Z,4.70
2018-01-30T15:46:16.590Z,4.40
2018-01-30T15:48:44.392Z,4.27
2018-01-30T15:51:12.988Z,4.77
2018-01-30T15:53:40.555Z,4.50
2018-01-30T15:56:08.155Z,4.57
2018-01-30T15:58:45.859Z,4.70
2018-01-30T16:01:14.647Z,5.10
2018-01-30T16:03:52.027Z,4.60
2018-01-30T16:06:20.120Z,5.03
2018-01-30T16:08:49.004Z,5.23
2018-01-30T16:11:16.548Z,5.40
2018-01-30T16:13:44.977Z,5.07
2018-01-30T16:16:12.688Z,5.13
2018-01-30T16:18:40.573Z,5.80
2018-01-30T16:21:08.956Z,5.70
2018-01-30T16:23:37.344Z,6.97
2018-01-30T16:26:04.870Z,8.00
2018-01-30T16:28:32.422Z,8.47
2018-01-30T16:31:00.716Z,7.93
2018-01-30T16:33:28.788Z,6.80
2018-01-30T16:35:56.458Z,8.17
2018-01-30T16:38:25.251Z,8.97
2018-01-30T16:40:52.917Z,7.53
2018-01-30T16:43:20.617Z,6.73
2018-01-30T16:45:48.371Z,6.60
2018-01-30T16:48:15.900Z,7.10
2018-01-30T16:50:44.119Z,7.60
2018-01-30T16:53:12.771Z,7.20
2018-01-30T16:55:41.220Z,8.70
2018-01-30T16:58:09.726Z,9.50
2018-01-30T17:00:38.198Z,9.23
2018-01-30T17:03:06.565Z,8.30
2018-01-30T17:05:34.684Z,8.77
2018-01-30T17:08:03.162Z,9.27
2018-01-30T17:10:30.709Z,7.70
2018-01-30T17:12:59.593Z,8.17
2018-01-30T17:15:27.569Z,8.43
2018-01-30T17:17:55.290Z,7.80
2018-01-30T17:20:23.816Z,7.57
2018-01-30T17:22:51.748Z,6.53
2018-01-30T17:25:20.201Z,7.80
2018-01-30T17:27:54.998Z,7.73
2018-01-30T17:30:22.528Z,7.93
2018-01-30T17:32:50.885Z,6.73
2018-01-30T17:35:19.454Z,7.17
2018-01-30T17:37:47.189Z,6.80
2018-01-30T17:40:15.302Z,6.30
2018-01-30T17:42:43.231Z,7.33
2018-01-30T17:45:10.747Z,7.17
2018-01-30T17:47:39.032Z,7.17
2018-01-30T17:50:07.424Z,7.07
2018-01-30T17:52:35.709Z,7.63
2018-01-30T17:55:03.250Z,8.53
2018-01-30T17:57:31.560Z,8.30
2018-01-30T17:59:59.076Z,7.83
2018-01-30T18:02:27.359Z,7.50
2018-01-30T18:04:55.676Z,7.33
2018-01-30T18:07:23.531Z,7.30
2018-01-30T18:09:51.238Z,7.30
2018-01-30T18:12:19.671Z,7.90
2018-01-30T18:14:47.643Z,6.87
2018-01-30T18:17:15.253Z,7.13
2018-01-30T18:19:42.882Z,6.53
2018-01-30T18:22:11.517Z,6.73
2018-01-30T18:24:39.812Z,6.47
2018-01-30T18:27:08.129Z,6.10
2018-01-30T18:29:35.655Z,6.23
2018-01-30T18:32:04.113Z,6.80
2018-01-30T18:34:31.712Z,6.27
2018-01-30T18:36:59.244Z,5.90
2018-01-30T18:39:27.532Z,6.07
2018-01-30T18:41:55.088Z,6.20
2018-01-30T18:44:22.726Z,6.73
2018-01-30T18:46:52.280Z,5.90
2018-01-30T18:49:20.860Z,5.33
2018-01-30T18:51:48.729Z,5.50
2018-01-30T18:54:16.429Z,5.07
2018-01-30T18:56:44.136Z,4.60
2018-01-30T18:59:11.661Z,5.30
2018-01-30T19:01:39.228Z,4.43
2018-01-30T19:04:06.769Z,5.07
2018-01-30T19:06:34.300Z,5.00
2018-01-30T19:09:01.960Z,4.90
2018-01-30T19:11:29.522Z,5.47
2018-01-30T19:13:58.453Z,5.43
2018-01-30T19:16:26.183Z,5.43
2018-01-30T19:18:54.039Z,5.23
2018-01-30T19:21:22.009Z,4.97
2018-01-30T19:23:49.952Z,5.30
2018-01-30T19:26:18.560Z,5.17
2018-01-30T19:28:48.094Z,5.33
2018-01-30T19:31:16.241Z,6.17
2018-01-30T19:33:44.932Z,6.67
2018-01-30T19:36:13.162Z,5.63
2018-01-30T19:38:41.379Z,6.47
2018-01-30T19:41:09.922Z,4.93
2018-01-30T19:43:38.448Z,4.50
2018-01-30T19:46:07.140Z,5.10
2018-01-30T19:48:34.682Z,5.00
2018-01-30T19:51:02.215Z,5.37
2018-01-30T19:53:31.756Z,4.60
2018-01-30T19:55:59.277Z,3.97
2018-01-30T19:58:26.877Z,4.33
2018-01-30T20:00:55.286Z,3.83
2018-01-30T20:03:23.533Z,4.30
2018-01-30T20:05:51.199Z,4.30
2018-01-30T20:08:19.685Z,4.00
2018-01-30T20:10:48.056Z,3.87
2018-01-30T20:13:16.565Z,6.17
2018-01-30T20:15:46.731Z,4.27
2018-01-30T20:18:16.779Z,4.63
2018-01-30T20:20:45.593Z,4.00
2018-01-30T20:23:13.276Z,4.47
2018-01-30T20:25:42.942Z,4.30
2018-01-30T20:28:10.459Z,3.93
2018-01-30T20:30:38.448Z,4.60
2018-01-30T20:33:06.036Z,5.27
2018-01-30T20:35:33.596Z,4.27
2018-01-30T20:38:01.120Z,4.53
2018-01-30T20:40:29.411Z,5.63
2018-01-30T20:42:58.185Z,4.77
2018-01-30T20:45:26.776Z,6.03
2018-01-30T20:47:55.997Z,5.70
2018-01-30T20:50:24.676Z,5.17
2018-01-30T20:52:52.448Z,5.20
2018-01-30T20:55:20.916Z,5.93
2018-01-30T20:57:50.037Z,5.80
2018-01-30T21:00:18.212Z,5.43
2018-01-30T21:02:47.195Z,4.60
2018-01-30T21:05:16.700Z,4.77
2018-01-30T21:07:44.379Z,4.33
2018-01-30T21:10:11.940Z,4.50
2018-01-30T21:12:39.654Z,5.33
2018-01-30T21:15:08.155Z,4.97
2018-01-30T21:17:36.493Z,4.80
2018-01-30T21:20:07.318Z,4.87
2018-01-30T21:22:34.853Z,4.93
2018-01-30T21:25:02.446Z,4.73
2018-01-30T21:27:29.959Z,5.13
2018-01-30T21:29:57.484Z,4.87
2018-01-30T21:32:25.785Z,4.83
2018-01-30T21:34:53.768Z,5.00
2018-01-30T21:37:22.522Z,5.30
2018-01-30T21:39:50.835Z,5.03
2018-01-30T21:42:18.619Z,4.70
2018-01-30T21:44:48.428Z,5.40
2018-01-30T21:47:16.997Z,5.50
2018-01-30T21:49:46.248Z,5.63
2018-01-30T21:52:13.783Z,4.63
2018-01-30T21:54:42.310Z,5.07
2018-01-30T21:57:10.840Z,5.20
2018-01-30T21:59:38.719Z,5.40
2018-01-30T22:02:06.932Z,4.70
2018-01-30T22:04:34.525Z,5.37
2018-01-30T22:07:02.058Z,5.20
2018-01-30T22:09:30.337Z,5.20
2018-01-30T22:11:59.047Z,5.23
2018-01-30T22:14:26.573Z,5.27
2018-01-30T22:16:54.888Z,5.70
2018-01-30T22:19:22.531Z,5.53
2018-01-30T22:21:50.143Z,5.23
2018-01-30T22:24:18.181Z,5.53
2018-01-30T22:26:45.855Z,5.93
2018-01-30T22:29:13.504Z,5.50
2018-01-30T22:31:42.172Z,5.33
2018-01-30T22:34:10.487Z,5.20
2018-01-30T22:36:38.132Z,6.40
2018-01-30T22:39:05.779Z,6.00
2018-01-30T22:41:33.316Z,6.10
2018-01-30T22:44:02.519Z,5.97
2018-01-30T22:46:30.800Z,5.63
